Time;durP1;ratioP1;P1;durP2;ratioP2;P2;SDS_P1;SDS_P2;PMS_P1;PMS_P2;Temp;Humidity;BMP_temperature;BMP_pressure;BME280_temperature;BME280_humidity;BME280_pressure;Samples;Min_cycle;Max_cycle;Signal;HPM_P1;HPM_P2
2023/05/17 00:02:24;;;;;;;4.87;1.47;;;7.60;99.90;;;;;;5033712;28;20285;-39
2023/05/17 00:04:50;;;;;;;2.90;1.60;;;7.50;99.90;;;;;;5020881;28;21786;-38
2023/05/17 00:07:15;;;;;;;4.70;1.43;;;7.40;99.90;;;;;;5055312;28;20268;-41
2023/05/17 00:09:41;;;;;;;3.43;1.50;;;7.30;99.90;;;;;;5063364;28;20188;-39
2023/05/17 00:12:07;;;;;;;3.50;1.47;;;7.30;99.90;;;;;;5032970;28;20232;-38
2023/05/17 00:14:33;;;;;;;6.50;1.70;;;7.30;99.90;;;;;;5044647;28;20758;-36
2023/05/17 00:16:58;;;;;;;2.97;1.30;;;7.20;99.90;;;;;;5043005;28;20185;-35
2023/05/17 00:19:24;;;;;;;2.23;1.20;;;7.30;99.90;;;;;;5034894;28;20188;-39
2023/05/17 00:21:50;;;;;;;3.03;1.40;;;7.30;99.90;;;;;;5056096;28;20193;-38
2023/05/17 00:24:15;;;;;;;3.63;1.60;;;7.30;99.90;;;;;;5055076;28;20227;-38
2023/05/17 00:26:41;;;;;;;2.53;1.40;;;7.30;99.90;;;;;;5073897;28;20273;-40
2023/05/17 00:29:07;;;;;;;2.27;1.47;;;7.30;99.90;;;;;;5053820;28;20193;-40
2023/05/17 00:31:33;;;;;;;2.97;1.20;;;7.30;99.90;;;;;;5054954;28;20231;-38
2023/05/17 00:33:58;;;;;;;2.07;1.20;;;7.40;99.90;;;;;;5054748;28;20266;-38
2023/05/17 00:36:24;;;;;;;3.97;1.67;;;7.40;99.90;;;;;;5054801;28;20191;-38
2023/05/17 00:38:50;;;;;;;4.03;1.30;;;7.50;99.90;;;;;;5038224;28;20191;-39
2023/05/17 00:41:16;;;;;;;4.50;1.47;;;7.50;99.90;;;;;;5054872;28;20188;-41
2023/05/17 00:43:42;;;;;;;2.93;1.40;;;7.40;99.90;;;;;;5054096;28;20213;-39
2023/05/17 00:46:08;;;;;;;2.37;1.47;;;7.30;99.90;;;;;;5054485;28;20177;-38
2023/05/17 00:48:34;;;;;;;3.57;1.70;;;7.30;99.90;;;;;;5053760;28;20212;-39
2023/05/17 00:51:00;;;;;;;1.90;1.20;;;7.20;99.90;;;;;;5054965;28;20185;-39
2023/05/17 00:53:27;;;;;;;3.50;1.77;;;7.10;99.90;;;;;;5054475;28;20319;-38
2023/05/17 00:55:54;;;;;;;2.27;1.40;;;7.10;99.90;;;;;;5054165;28;20173;-39
2023/05/17 00:58:21;;;;;;;2.40;1.47;;;7.00;99.90;;;;;;5037990;28;20184;-38
2023/05/17 01:00:47;;;;;;;3.13;1.60;;;7.00;99.90;;;;;;5054657;28;20172;-40
2023/05/17 01:03:13;;;;;;;3.97;1.47;;;7.00;99.90;;;;;;5072551;28;20227;-37
2023/05/17 01:05:39;;;;;;;4.17;1.77;;;7.00;99.90;;;;;;5054232;28;20211;-38
2023/05/17 01:08:05;;;;;;;3.67;1.70;;;6.90;99.90;;;;;;5054221;28;20184;-39
2023/05/17 01:11:05;;;;;;;3.63;1.40;;;6.90;99.90;;;;;;5053998;28;20174;-37
2023/05/17 01:13:37;;;;;;;5.40;1.93;;;6.90;99.90;;;;;;5054279;28;20200;-39
2023/05/17 01:16:14;;;;;;;4.83;1.60;;;6.90;99.90;;;;;;5054478;28;20250;-39
2023/05/17 01:19:06;;;;;;;5.30;2.33;;;6.90;99.90;;;;;;5037639;28;20238;-40
2023/05/17 01:21:57;;;;;;;3.30;1.93;;;7.00;99.90;;;;;;5037559;28;20184;-37
2023/05/17 01:24:29;;;;;;;3.73;1.50;;;7.00;99.90;;;;;;5053762;28;20217;-38
2023/05/17 01:26:58;;;;;;;6.13;1.83;;;7.00;99.90;;;;;;5054004;28;20187;-37
2023/05/17 01:29:26;;;;;;;4.63;1.97;;;6.90;99.90;;;;;;5053893;28;20176;-40
2023/05/17 01:31:55;;;;;;;4.60;1.60;;;6.90;99.90;;;;;;5054338;28;20165;-36
2023/05/17 01:34:27;;;;;;;3.90;1.40;;;6.80;99.90;;;;;;5053674;28;20227;-39
2023/05/17 01:36:53;;;;;;;2.90;1.40;;;6.80;99.90;;;;;;5033764;28;20189;-41
2023/05/17 01:39:19;;;;;;;2.23;1.40;;;6.90;99.90;;;;;;5034015;28;20196;-40
2023/05/17 01:42:31;;;;;;;4.40;1.80;;;6.80;99.90;;;;;;5033762;28;20215;-40
2023/05/17 01:45:09;;;;;;;2.70;1.53;;;6.80;99.90;;;;;;5028724;28;20224;-39
2023/05/17 01:48:14;;;;;;;2.77;1.60;;;6.80;99.90;;;;;;5017600;28;20250;-38
2023/05/17 01:50:42;;;;;;;2.13;1.30;;;6.80;99.90;;;;;;5033218;28;20220;-37
2023/05/17 01:53:15;;;;;;;4.00;1.23;;;6.80;99.90;;;;;;5047569;28;20207;-38
2023/05/17 01:55:49;;;;;;;4.20;1.40;;;6.80;99.90;;;;;;5053565;28;20184;-39
2023/05/17 01:58:17;;;;;;;4.03;1.40;;;6.80;99.90;;;;;;5044970;28;20185;-39
2023/05/17 02:00:46;;;;;;;4.57;1.70;;;6.70;99.90;;;;;;5049223;28;20235;-37
2023/05/17 02:03:18;;;;;;;1.60;1.40;;;6.80;99.90;;;;;;5049836;28;20204;-39
2023/05/17 02:05:44;;;;;;;3.43;1.67;;;6.80;99.90;;;;;;5053124;28;20551;-38
2023/05/17 02:08:11;;;;;;;4.37;1.30;;;6.80;99.90;;;;;;5036055;28;20176;-40
2023/05/17 02:10:36;;;;;;;2.10;1.47;;;6.80;99.90;;;;;;5053119;28;20180;-39
2023/05/17 02:13:02;;;;;;;2.90;1.30;;;6.70;99.90;;;;;;5053078;28;20205;-39
2023/05/17 02:15:29;;;;;;;3.83;1.47;;;6.70;99.90;;;;;;5035864;28;20182;-38
2023/05/17 02:17:55;;;;;;;3.60;1.40;;;6.60;99.90;;;;;;5035743;28;20187;-40
2023/05/17 02:20:22;;;;;;;4.17;1.60;;;6.60;99.90;;;;;;5052930;28;20591;-37
2023/05/17 02:22:48;;;;;;;6.23;1.90;;;6.60;99.90;;;;;;5036054;28;20188;-38
2023/05/17 02:25:14;;;;;;;1.93;1.50;;;6.50;99.90;;;;;;5052976;28;20213;-39
2023/05/17 02:27:39;;;;;;;2.00;1.30;;;6.50;99.90;;;;;;5070393;28;20235;-36
2023/05/17 02:30:07;;;;;;;3.13;1.50;;;6.40;99.90;;;;;;5052972;28;20177;-40
2023/05/17 02:32:33;;;;;;;4.73;1.40;;;6.40;99.90;;;;;;5052688;28;20172;-36
2023/05/17 02:34:59;;;;;;;2.30;1.30;;;6.30;99.90;;;;;;5052457;28;20184;-37
2023/05/17 02:37:25;;;;;;;2.90;1.30;;;6.30;99.90;;;;;;5052453;28;20196;-38
2023/05/17 02:39:51;;;;;;;2.00;1.30;;;6.30;99.90;;;;;;5052402;28;20187;-39
2023/05/17 02:42:17;;;;;;;2.93;1.67;;;6.30;99.90;;;;;;5052795;28;20183;-37
2023/05/17 02:44:43;;;;;;;2.53;1.20;;;6.30;99.90;;;;;;5035859;28;20298;-39
2023/05/17 02:47:08;;;;;;;1.40;1.30;;;6.20;99.90;;;;;;5036073;28;20264;-37
2023/05/17 02:49:35;;;;;;;7.03;1.50;;;6.20;99.90;;;;;;5036129;28;20218;-36
2023/05/17 02:52:02;;;;;;;3.37;1.70;;;6.20;99.90;;;;;;5036317;28;20183;-38
2023/05/17 02:54:29;;;;;;;2.63;1.40;;;6.20;99.90;;;;;;5052394;28;20206;-39
2023/05/17 02:56:55;;;;;;;5.03;1.40;;;6.20;99.90;;;;;;5052195;28;20183;-40
2023/05/17 02:59:21;;;;;;;6.03;1.50;;;6.10;99.90;;;;;;5052055;28;20192;-34
2023/05/17 03:01:48;;;;;;;4.10;1.63;;;6.10;99.90;;;;;;5052551;28;20191;-37
2023/05/17 03:04:15;;;;;;;2.47;1.20;;;6.00;99.90;;;;;;5051659;28;20222;-37
2023/05/17 03:06:41;;;;;;;3.83;1.60;;;6.00;99.90;;;;;;5033746;28;20185;-37
2023/05/17 03:09:07;;;;;;;5.30;1.53;;;6.00;99.90;;;;;;5035509;28;20176;-36
2023/05/17 03:11:33;;;;;;;2.97;1.40;;;5.90;99.90;;;;;;5052763;28;20206;-36
2023/05/17 03:14:02;;;;;;;2.07;1.50;;;5.90;99.90;;;;;;5052394;28;20229;-37
2023/05/17 03:16:30;;;;;;;2.83;1.43;;;5.80;99.90;;;;;;5036416;28;20184;-37
2023/05/17 03:18:56;;;;;;;2.60;1.20;;;5.80;99.90;;;;;;5035980;28;20199;-35
2023/05/17 03:21:22;;;;;;;3.50;1.30;;;5.80;99.90;;;;;;5051725;28;20194;-38
2023/05/17 03:23:49;;;;;;;1.40;1.30;;;5.70;99.90;;;;;;5035489;28;20284;-37
2023/05/17 03:26:15;;;;;;;1.87;1.20;;;5.70;99.90;;;;;;5052577;28;20273;-38
2023/05/17 03:28:46;;;;;;;1.77;1.40;;;5.70;99.90;;;;;;5047900;28;20654;-38
2023/05/17 03:31:12;;;;;;;2.23;1.53;;;5.70;99.90;;;;;;5032335;28;20172;-38
2023/05/17 03:33:38;;;;;;;2.50;1.70;;;5.60;99.90;;;;;;5036763;28;20203;-34
2023/05/17 03:36:04;;;;;;;4.43;1.80;;;5.50;99.90;;;;;;5034763;28;20231;-35
2023/05/17 03:38:31;;;;;;;3.03;1.87;;;5.50;99.90;;;;;;5020399;28;20249;-37
2023/05/17 03:40:57;;;;;;;3.63;1.80;;;5.50;99.90;;;;;;5032532;28;20178;-35
2023/05/17 03:43:23;;;;;;;2.80;1.60;;;5.50;99.90;;;;;;5042122;28;20216;-37
2023/05/17 03:45:49;;;;;;;3.07;2.00;;;5.50;99.90;;;;;;5051312;28;20175;-38
2023/05/17 03:48:17;;;;;;;2.80;2.00;;;5.40;99.90;;;;;;5034174;28;20179;-37
2023/05/17 03:50:43;;;;;;;3.63;1.70;;;5.40;99.90;;;;;;5035118;28;20198;-35
2023/05/17 03:53:09;;;;;;;3.27;1.80;;;5.40;99.90;;;;;;5035449;28;20195;-39
2023/05/17 03:55:35;;;;;;;1.67;1.57;;;5.30;99.90;;;;;;5035357;28;20173;-37
2023/05/17 03:58:01;;;;;;;2.23;1.87;;;5.30;99.90;;;;;;5037375;28;20655;-37
2023/05/17 04:00:28;;;;;;;5.53;2.50;;;5.30;99.90;;;;;;5046041;28;20182;-37
2023/05/17 04:02:59;;;;;;;2.57;1.97;;;5.30;99.90;;;;;;5046257;28;20206;-34
2023/05/17 04:05:25;;;;;;;4.53;2.47;;;5.30;99.90;;;;;;5026577;28;20214;-38
2023/05/17 04:07:52;;;;;;;3.43;2.00;;;5.20;99.90;;;;;;5044463;28;20265;-35
2023/05/17 04:10:18;;;;;;;2.53;2.10;;;5.20;99.90;;;;;;5066118;28;20188;-39
2023/05/17 04:12:44;;;;;;;3.20;1.80;;;5.20;99.90;;;;;;5050992;28;20214;-38
2023/05/17 04:15:10;;;;;;;3.57;1.60;;;5.20;99.90;;;;;;5048897;28;20252;-35
2023/05/17 04:17:38;;;;;;;3.40;1.60;;;5.20;99.90;;;;;;5033566;28;20229;-37
2023/05/17 04:20:05;;;;;;;3.27;1.97;;;5.20;99.90;;;;;;5037690;28;20198;-39
2023/05/17 04:22:32;;;;;;;2.47;1.60;;;5.20;99.90;;;;;;5053905;28;20192;-37
2023/05/17 04:24:58;;;;;;;5.90;2.00;;;5.10;99.90;;;;;;5036471;28;20208;-35
2023/05/17 04:27:27;;;;;;;2.93;1.67;;;5.00;99.90;;;;;;5035559;28;20179;-36
2023/05/17 04:29:53;;;;;;;2.57;1.80;;;5.00;99.90;;;;;;5018930;28;20175;-37
2023/05/17 04:32:20;;;;;;;2.97;1.70;;;5.00;99.90;;;;;;5033831;28;20170;-36
2023/05/17 04:34:46;;;;;;;3.23;2.10;;;4.90;99.90;;;;;;5035957;28;20215;-35
2023/05/17 04:37:13;;;;;;;3.97;2.00;;;4.90;99.90;;;;;;5051130;28;20231;-38
2023/05/17 04:39:39;;;;;;;2.67;1.83;;;4.90;99.90;;;;;;5054504;28;20189;-37
2023/05/17 04:42:05;;;;;;;3.63;1.70;;;4.90;99.90;;;;;;5054711;28;20185;-39
2023/05/17 04:44:34;;;;;;;2.57;1.73;;;4.90;99.90;;;;;;5030637;28;20297;-39
2023/05/17 04:47:00;;;;;;;2.30;1.67;;;4.90;99.90;;;;;;5054720;28;20269;-38
2023/05/17 04:49:26;;;;;;;2.60;1.70;;;5.00;99.90;;;;;;5054214;28;20182;-34
2023/05/17 04:51:53;;;;;;;3.17;1.70;;;5.10;99.90;;;;;;5036829;28;20188;-38
2023/05/17 04:54:19;;;;;;;4.70;2.10;;;5.20;99.90;;;;;;5052051;28;20636;-37
2023/05/17 04:56:45;;;;;;;2.57;1.80;;;5.40;99.90;;;;;;5054452;28;20192;-38
2023/05/17 04:59:18;;;;;;;3.00;1.80;;;5.50;99.90;;;;;;5054874;28;20182;-38
2023/05/17 05:01:44;;;;;;;2.17;1.57;;;5.70;99.90;;;;;;5052747;28;20209;-38
2023/05/17 05:04:10;;;;;;;4.40;1.87;;;5.80;99.90;;;;;;5053635;28;20578;-37
2023/05/17 05:06:40;;;;;;;6.93;1.90;;;5.90;99.90;;;;;;5037933;28;20319;-39
2023/05/17 05:09:07;;;;;;;3.77;1.73;;;6.00;99.90;;;;;;5054003;28;20268;-38
2023/05/17 05:11:35;;;;;;;6.60;2.97;;;6.10;99.90;;;;;;5037520;28;20652;-37
2023/05/17 05:14:02;;;;;;;7.67;3.80;;;6.20;99.90;;;;;;5017731;28;20900;-37
2023/05/17 05:16:28;;;;;;;3.47;3.17;;;6.30;99.90;;;;;;5016777;28;20192;-35
2023/05/17 05:18:55;;;;;;;4.37;2.20;;;6.40;99.90;;;;;;5047020;28;20283;-34
2023/05/17 05:21:22;;;;;;;5.93;2.57;;;6.50;99.90;;;;;;5072075;28;20179;-37
2023/05/17 05:23:47;;;;;;;4.33;2.00;;;6.70;99.90;;;;;;5033487;28;20221;-36
2023/05/17 05:26:14;;;;;;;3.13;1.60;;;6.80;99.90;;;;;;5033804;28;20180;-36
2023/05/17 05:28:40;;;;;;;3.17;2.03;;;7.00;99.90;;;;;;5051906;28;20203;-37
2023/05/17 05:31:07;;;;;;;5.73;2.47;;;7.20;99.90;;;;;;5054112;28;20187;-35
2023/05/17 05:33:41;;;;;;;2.80;1.80;;;7.40;99.90;;;;;;5053266;28;20200;-34
2023/05/17 05:36:08;;;;;;;2.50;1.60;;;7.50;99.90;;;;;;5026940;28;20192;-38
2023/05/17 05:38:35;;;;;;;3.27;1.80;;;7.60;99.90;;;;;;5042576;28;20182;-36
2023/05/17 05:41:01;;;;;;;5.37;2.03;;;7.60;99.90;;;;;;5017233;28;20192;-37
2023/05/17 05:43:27;;;;;;;3.80;1.80;;;7.80;99.90;;;;;;5048066;28;20209;-37
2023/05/17 05:45:53;;;;;;;4.40;1.80;;;7.80;99.90;;;;;;5032093;28;20181;-36
2023/05/17 05:48:20;;;;;;;3.53;1.90;;;7.90;99.90;;;;;;5019425;28;20181;-35
2023/05/17 05:50:46;;;;;;;5.07;1.57;;;7.90;99.90;;;;;;5053785;28;20173;-36
2023/05/17 05:53:12;;;;;;;4.20;1.90;;;7.90;99.90;;;;;;5053117;28;20313;-34
2023/05/17 05:55:41;;;;;;;3.40;1.80;;;7.90;99.90;;;;;;5050592;28;20208;-37
2023/05/17 05:58:08;;;;;;;2.80;1.90;;;8.00;99.90;;;;;;5053548;28;20625;-37
2023/05/17 06:00:36;;;;;;;3.53;2.10;;;8.00;99.90;;;;;;5036565;28;20189;-39
2023/05/17 06:03:02;;;;;;;7.17;2.00;;;8.10;99.90;;;;;;5053228;28;20209;-37
2023/05/17 06:05:27;;;;;;;3.13;1.60;;;8.20;99.90;;;;;;5065580;28;20205;-37
2023/05/17 06:07:54;;;;;;;3.53;1.67;;;8.20;99.90;;;;;;5037545;28;20193;-37
2023/05/17 06:10:20;;;;;;;4.00;1.90;;;8.30;99.90;;;;;;5033432;28;20189;-37
2023/05/17 06:12:45;;;;;;;3.97;2.07;;;8.20;99.90;;;;;;5042050;28;20571;-41
2023/05/17 06:15:11;;;;;;;3.67;1.63;;;8.30;99.90;;;;;;5043690;28;20189;-34
2023/05/17 06:17:37;;;;;;;5.70;2.00;;;8.40;99.90;;;;;;5041832;28;20644;-37
2023/05/17 06:20:04;;;;;;;6.17;2.10;;;8.50;99.90;;;;;;5035553;28;20184;-38
2023/05/17 06:22:30;;;;;;;4.13;1.77;;;8.70;99.90;;;;;;5038917;28;20260;-37
2023/05/17 06:24:55;;;;;;;4.13;1.87;;;8.70;99.90;;;;;;5061526;28;20296;-41
2023/05/17 06:27:21;;;;;;;2.77;1.63;;;8.90;99.90;;;;;;5060055;28;20212;-38
2023/05/17 06:29:47;;;;;;;5.07;1.77;;;9.10;99.90;;;;;;5058958;28;20181;-36
2023/05/17 06:32:13;;;;;;;6.63;2.13;;;9.30;99.90;;;;;;5041128;28;20177;-39
2023/05/17 06:34:39;;;;;;;7.67;1.80;;;9.40;99.90;;;;;;5058899;28;20216;-38
2023/05/17 06:37:05;;;;;;;5.07;1.57;;;9.50;99.90;;;;;;5060242;28;20190;-37
2023/05/17 06:39:31;;;;;;;7.30;1.73;;;9.60;99.90;;;;;;5042466;28;20674;-39
2023/05/17 06:41:56;;;;;;;3.17;1.83;;;9.70;99.90;;;;;;5040700;28;20259;-39
2023/05/17 06:44:22;;;;;;;4.90;2.03;;;9.70;99.90;;;;;;5059704;28;20209;-38
2023/05/17 06:46:48;;;;;;;6.40;1.77;;;9.80;99.90;;;;;;5057664;28;20175;-37
2023/05/17 06:49:14;;;;;;;4.90;1.77;;;9.80;99.90;;;;;;5060240;28;20170;-37
2023/05/17 06:51:40;;;;;;;4.93;2.00;;;9.90;99.90;;;;;;5061092;28;20174;-38
2023/05/17 06:54:06;;;;;;;5.07;1.80;;;10.00;99.90;;;;;;5038718;28;20556;-37
2023/05/17 06:56:32;;;;;;;7.53;2.10;;;10.10;99.90;;;;;;5059399;28;20170;-37
2023/05/17 06:58:58;;;;;;;4.47;1.80;;;10.20;99.90;;;;;;5041620;28;20185;-37
2023/05/17 07:01:24;;;;;;;4.60;1.83;;;10.30;99.90;;;;;;5060533;28;20185;-39
2023/05/17 07:03:50;;;;;;;7.70;1.90;;;10.50;99.90;;;;;;5057528;28;20213;-39
2023/05/17 07:06:16;;;;;;;5.73;2.03;;;10.60;99.90;;;;;;5058319;28;20173;-41
2023/05/17 07:08:43;;;;;;;3.80;1.70;;;10.80;99.90;;;;;;5058062;28;20173;-40
2023/05/17 07:11:09;;;;;;;3.50;2.00;;;11.00;99.90;;;;;;5041313;28;20181;-39
2023/05/17 07:13:34;;;;;;;4.13;1.70;;;11.10;99.90;;;;;;5042275;28;20205;-41
2023/05/17 07:16:00;;;;;;;5.27;2.23;;;11.20;99.90;;;;;;5041751;28;20179;-38
2023/05/17 07:18:26;;;;;;;2.60;1.67;;;11.30;99.90;;;;;;5041647;28;20177;-38
2023/05/17 07:20:52;;;;;;;4.40;2.00;;;11.40;99.90;;;;;;5043671;28;20194;-41
2023/05/17 07:23:18;;;;;;;4.20;2.03;;;11.50;99.90;;;;;;5063971;28;20214;-39
2023/05/17 07:25:45;;;;;;;8.83;2.00;;;11.50;99.90;;;;;;5054848;28;20212;-39
2023/05/17 07:28:10;;;;;;;3.80;2.03;;;11.60;99.90;;;;;;5074741;28;20229;-37
2023/05/17 07:30:36;;;;;;;4.07;1.90;;;11.70;99.90;;;;;;5043244;28;20212;-39
2023/05/17 07:33:02;;;;;;;4.30;1.83;;;11.80;99.90;;;;;;5063461;28;20213;-39
2023/05/17 07:35:28;;;;;;;4.17;1.80;;;11.90;99.90;;;;;;5031846;28;20285;-41
2023/05/17 07:37:54;;;;;;;4.30;1.90;;;11.90;99.90;;;;;;5063243;28;20188;-39
2023/05/17 07:40:20;;;;;;;4.60;2.13;;;11.90;99.90;;;;;;5045216;28;20649;-41
2023/05/17 07:42:46;;;;;;;4.73;2.10;;;11.90;99.90;;;;;;5062600;28;20191;-41
2023/05/17 07:45:12;;;;;;;4.60;1.90;;;12.00;99.90;;;;;;5062053;28;20233;-40
2023/05/17 07:47:38;;;;;;;3.80;2.10;;;12.10;99.90;;;;;;5064496;28;20249;-42
2023/05/17 07:50:06;;;;;;;5.77;1.87;;;12.30;99.90;;;;;;5041369;28;20175;-36
2023/05/17 07:52:32;;;;;;;4.47;2.10;;;12.30;99.90;;;;;;5045090;28;20196;-40
2023/05/17 07:55:04;;;;;;;3.87;2.10;;;12.50;99.90;;;;;;5061200;28;20180;-40
2023/05/17 07:57:31;;;;;;;3.90;2.20;;;12.60;99.90;;;;;;5031330;28;20185;-38
2023/05/17 07:59:59;;;;;;;4.97;2.10;;;12.70;99.90;;;;;;5043639;28;20276;-41
2023/05/17 08:02:25;;;;;;;4.77;2.00;;;12.70;99.90;;;;;;5061318;28;20209;-41
2023/05/17 08:04:51;;;;;;;5.93;2.20;;;12.70;99.90;;;;;;5031731;28;20217;-42
2023/05/17 08:07:16;;;;;;;4.20;2.40;;;12.90;99.90;;;;;;5042099;28;20269;-42
2023/05/17 08:09:44;;;;;;;5.57;2.17;;;13.00;99.90;;;;;;5037557;28;20216;-41
2023/05/17 08:12:10;;;;;;;6.93;2.13;;;13.00;99.90;;;;;;5061671;28;20188;-41
2023/05/17 08:14:35;;;;;;;4.70;2.40;;;13.00;99.90;;;;;;5043877;28;20205;-42
2023/05/17 08:17:01;;;;;;;8.17;2.20;;;13.10;99.90;;;;;;5043793;28;20186;-41
2023/05/17 08:19:27;;;;;;;5.57;2.10;;;12.90;99.90;;;;;;5033148;28;20188;-41
2023/05/17 08:21:53;;;;;;;7.27;2.43;;;12.80;99.90;;;;;;5040968;28;20257;-42
2023/05/17 08:24:18;;;;;;;6.40;2.50;;;12.60;99.90;;;;;;5040872;28;20295;-41
2023/05/17 08:26:44;;;;;;;6.50;2.50;;;12.80;99.90;;;;;;5059664;28;20185;-41
2023/05/17 08:29:10;;;;;;;5.23;2.27;;;12.90;99.90;;;;;;5044659;28;20205;-41
2023/05/17 08:31:36;;;;;;;5.93;2.30;;;12.90;99.90;;;;;;5044257;28;20169;-42
2023/05/17 08:34:02;;;;;;;6.20;2.60;;;13.10;99.90;;;;;;5063308;28;20220;-40
2023/05/17 08:36:27;;;;;;;3.97;2.37;;;13.30;99.90;;;;;;5060459;28;20185;-40
2023/05/17 08:38:53;;;;;;;6.40;2.30;;;13.40;99.90;;;;;;5062402;28;20323;-42
2023/05/17 08:41:20;;;;;;;3.77;2.57;;;13.70;99.90;;;;;;5043586;28;20271;-41
2023/05/17 08:43:47;;;;;;;5.40;2.60;;;13.90;99.90;;;;;;5027576;28;20206;-42
2023/05/17 08:46:15;;;;;;;5.23;2.47;;;13.90;99.90;;;;;;5044451;28;20184;-41
2023/05/17 08:48:43;;;;;;;5.43;2.60;;;13.70;99.90;;;;;;5035107;28;20173;-42
2023/05/17 08:51:10;;;;;;;5.97;2.97;;;13.60;99.90;;;;;;5043376;28;20202;-42
2023/05/17 08:53:38;;;;;;;4.70;2.37;;;13.40;99.90;;;;;;5061233;28;20212;-42
2023/05/17 08:56:05;;;;;;;5.30;2.70;;;13.50;99.90;;;;;;5061001;28;20161;-42
2023/05/17 08:58:37;;;;;;;5.90;2.43;;;13.50;99.90;;;;;;5042924;28;20303;-41
2023/05/17 09:01:05;;;;;;;4.93;2.50;;;13.50;99.90;;;;;;5061103;28;20185;-41
2023/05/17 09:03:34;;;;;;;5.93;2.90;;;13.50;99.90;;;;;;5060702;28;20194;-42
2023/05/17 09:06:01;;;;;;;7.37;2.97;;;13.60;99.90;;;;;;5043388;28;20177;-40
2023/05/17 09:08:29;;;;;;;4.13;2.40;;;13.70;99.90;;;;;;5043421;28;20189;-41
2023/05/17 09:10:58;;;;;;;5.70;3.03;;;13.90;99.90;;;;;;5060933;28;20181;-41
2023/05/17 09:13:24;;;;;;;4.03;2.80;;;14.40;99.90;;;;;;5040890;28;20219;-42
2023/05/17 09:15:50;;;;;;;5.50;2.53;;;14.80;99.90;;;;;;5058445;28;20209;-42
2023/05/17 09:18:17;;;;;;;4.60;2.60;;;15.20;99.90;;;;;;5027823;28;20192;-42
2023/05/17 09:20:50;;;;;;;6.40;2.97;;;15.50;99.90;;;;;;5057830;28;20181;-42
2023/05/17 09:23:19;;;;;;;6.67;2.80;;;15.60;99.90;;;;;;5058805;28;20251;-42
2023/05/17 09:25:49;;;;;;;5.93;2.50;;;15.00;99.90;;;;;;5022544;28;20197;-42
2023/05/17 09:28:19;;;;;;;4.60;2.40;;;14.80;99.90;;;;;;5059385;28;20253;-42
2023/05/17 09:30:48;;;;;;;4.17;2.60;;;15.20;99.90;;;;;;5059858;28;20173;-42
2023/05/17 09:33:13;;;;;;;5.93;2.83;;;15.30;99.90;;;;;;5043399;28;20200;-42
2023/05/17 09:35:41;;;;;;;7.33;2.60;;;15.00;99.90;;;;;;5061427;28;20178;-42
2023/05/17 09:38:12;;;;;;;5.83;2.80;;;15.30;99.90;;;;;;5042895;28;20267;-42
2023/05/17 09:40:46;;;;;;;3.70;2.73;;;14.80;99.90;;;;;;5060568;28;20222;-43
2023/05/17 09:43:13;;;;;;;4.07;2.77;;;14.60;99.90;;;;;;5055133;28;20205;-42
2023/05/17 09:45:39;;;;;;;4.67;2.60;;;14.40;99.90;;;;;;5042287;28;20213;-42
2023/05/17 09:48:17;;;;;;;3.53;2.40;;;14.80;99.90;;;;;;5038798;28;20189;-42
2023/05/17 09:50:48;;;;;;;5.63;2.63;;;14.80;99.90;;;;;;5040574;28;20212;-41
2023/05/17 09:53:28;;;;;;;4.20;2.60;;;14.10;99.90;;;;;;5038848;28;20198;-42
2023/05/17 09:56:04;;;;;;;4.77;3.10;;;13.90;99.90;;;;;;5042726;28;20173;-43
2023/05/17 09:58:36;;;;;;;5.53;2.80;;;13.30;99.90;;;;;;5033629;28;20177;-42
2023/05/17 10:01:05;;;;;;;5.07;2.70;;;13.30;99.90;;;;;;5025826;28;20188;-42
2023/05/17 10:03:33;;;;;;;4.83;2.67;;;13.40;99.90;;;;;;5044675;28;20209;-41
2023/05/17 10:06:02;;;;;;;3.83;2.60;;;13.50;99.90;;;;;;5041486;28;20190;-42
2023/05/17 10:08:29;;;;;;;4.93;3.07;;;13.60;99.90;;;;;;5038356;28;20297;-42
2023/05/17 10:11:04;;;;;;;4.37;2.70;;;13.60;99.90;;;;;;5030742;28;20173;-42
2023/05/17 10:13:39;;;;;;;4.43;2.63;;;13.50;99.90;;;;;;5069331;28;20295;-42
2023/05/17 10:16:06;;;;;;;5.93;2.70;;;13.80;99.90;;;;;;5053472;28;20177;-42
2023/05/17 10:18:32;;;;;;;5.80;2.70;;;14.20;99.90;;;;;;5036325;28;20181;-42
2023/05/17 10:21:00;;;;;;;5.17;2.90;;;14.60;99.90;;;;;;5070336;28;20183;-42
2023/05/17 10:23:26;;;;;;;4.13;2.40;;;14.90;99.90;;;;;;5035423;28;20311;-42
2023/05/17 10:25:53;;;;;;;4.37;2.37;;;15.20;99.90;;;;;;5071093;28;20209;-42
2023/05/17 10:28:20;;;;;;;5.20;3.00;;;15.30;99.90;;;;;;5042147;28;20215;-42
2023/05/17 10:30:47;;;;;;;3.63;2.60;;;15.40;99.90;;;;;;5034458;28;20181;-42
2023/05/17 10:33:14;;;;;;;5.03;2.60;;;15.00;99.90;;;;;;5043457;28;20197;-42
2023/05/17 10:35:43;;;;;;;6.67;2.90;;;14.50;99.90;;;;;;5060195;28;20235;-41
2023/05/17 10:38:10;;;;;;;4.50;2.80;;;14.20;99.90;;;;;;5032471;28;20205;-42
2023/05/17 10:40:38;;;;;;;4.77;2.57;;;14.10;99.90;;;;;;5035814;28;20192;-42
2023/05/17 10:43:06;;;;;;;3.53;2.63;;;14.20;99.90;;;;;;5033670;28;20201;-42
2023/05/17 10:45:32;;;;;;;3.90;2.53;;;14.40;99.90;;;;;;5063592;28;20214;-42
2023/05/17 10:48:04;;;;;;;4.87;2.73;;;14.30;99.90;;;;;;5050256;28;20181;-40
2023/05/17 10:50:30;;;;;;;3.97;2.73;;;14.30;99.90;;;;;;5063962;28;20173;-42
2023/05/17 10:52:58;;;;;;;7.63;2.83;;;14.30;99.90;;;;;;5062901;28;20247;-41
2023/05/17 10:55:35;;;;;;;4.30;2.30;;;14.40;99.90;;;;;;5070368;28;20180;-42
2023/05/17 10:58:15;;;;;;;6.23;2.50;;;14.40;99.90;;;;;;5051293;28;20183;-42
2023/05/17 11:00:43;;;;;;;4.10;2.57;;;14.50;99.90;;;;;;5022062;28;20181;-41
2023/05/17 11:03:16;;;;;;;4.17;2.20;;;14.70;99.90;;;;;;5062786;28;20190;-41
2023/05/17 11:06:03;;;;;;;4.10;2.43;;;14.80;99.90;;;;;;5065296;28;20201;-41
2023/05/17 11:08:29;;;;;;;4.13;2.50;;;14.90;99.90;;;;;;5024374;28;20202;-41
2023/05/17 11:11:09;;;;;;;4.30;2.33;;;15.00;99.90;;;;;;5040574;28;20188;-37
2023/05/17 11:13:54;;;;;;;2.63;2.33;;;15.00;99.90;;;;;;5058624;28;20202;-42
2023/05/17 11:16:24;;;;;;;3.37;2.47;;;14.80;99.90;;;;;;5039424;28;20177;-39
2023/05/17 11:18:52;;;;;;;5.17;2.80;;;15.00;99.90;;;;;;5045938;28;20188;-41
2023/05/17 11:21:21;;;;;;;3.57;2.67;;;15.40;99.90;;;;;;5027372;28;20181;-41
2023/05/17 11:23:56;;;;;;;6.20;3.07;;;15.90;99.90;;;;;;5042706;28;20316;-39
2023/05/17 11:26:37;;;;;;;3.10;2.40;;;15.90;99.90;;;;;;5062322;28;20181;-38
2023/05/17 11:29:09;;;;;;;4.27;2.50;;;16.00;99.90;;;;;;5036784;28;20189;-40
2023/05/17 11:31:41;;;;;;;6.00;2.70;;;15.80;99.90;;;;;;5060224;28;20174;-40
2023/05/17 11:34:07;;;;;;;3.90;2.30;;;15.80;99.90;;;;;;5058762;28;20197;-41
2023/05/17 11:36:52;;;;;;;5.97;2.50;;;15.60;99.90;;;;;;5030859;28;20188;-41
2023/05/17 11:39:25;;;;;;;4.17;2.60;;;15.70;99.90;;;;;;5038337;28;20282;-39
2023/05/17 11:41:55;;;;;;;3.50;2.37;;;15.80;99.90;;;;;;5060130;28;20192;-41
2023/05/17 11:44:32;;;;;;;3.53;2.53;;;15.90;99.90;;;;;;5056789;28;20213;-39
2023/05/17 11:47:10;;;;;;;5.32;3.08;;;16.30;99.90;;;;;;5057067;28;20200;-41
2023/05/17 11:49:38;;;;;;;5.43;2.53;;;16.50;99.90;;;;;;5059689;28;20263;-41
2023/05/17 11:52:06;;;;;;;3.53;3.10;;;16.30;99.90;;;;;;5042939;28;20182;-39
2023/05/17 11:54:33;;;;;;;5.17;2.83;;;16.30;99.90;;;;;;5055606;28;20214;-40
2023/05/17 11:57:02;;;;;;;4.37;3.07;;;15.90;99.90;;;;;;5030114;28;20186;-39
2023/05/17 11:59:39;;;;;;;4.27;2.60;;;15.70;99.90;;;;;;5047535;28;20191;-42
2023/05/17 12:02:07;;;;;;;7.60;3.43;;;15.30;99.90;;;;;;5038137;28;20185;-41
2023/05/17 12:04:38;;;;;;;3.33;2.80;;;15.20;99.90;;;;;;5039388;28;20202;-41
2023/05/17 12:07:09;;;;;;;5.70;3.00;;;15.30;99.90;;;;;;5056698;28;20174;-37
2023/05/17 12:09:36;;;;;;;4.93;2.73;;;15.30;99.90;;;;;;5034734;28;20170;-41
2023/05/17 12:12:03;;;;;;;6.13;3.17;;;14.80;99.90;;;;;;5049612;28;20633;-41
2023/05/17 12:14:29;;;;;;;5.63;3.20;;;14.70;99.90;;;;;;5061844;28;20205;-39
2023/05/17 12:16:57;;;;;;;4.73;2.80;;;14.90;99.90;;;;;;5068281;28;20195;-41
2023/05/17 12:19:28;;;;;;;6.67;2.87;;;15.10;99.90;;;;;;5055285;28;20193;-40
2023/05/17 12:22:11;;;;;;;6.47;3.07;;;15.20;99.90;;;;;;5040437;28;20185;-40
2023/05/17 12:24:41;;;;;;;5.07;3.07;;;15.30;99.90;;;;;;5058826;28;20217;-41
2023/05/17 12:27:07;;;;;;;6.90;3.20;;;15.10;99.90;;;;;;5048824;28;20210;-40
2023/05/17 12:29:33;;;;;;;6.07;3.10;;;14.90;99.90;;;;;;5056784;28;20268;-41
2023/05/17 12:32:00;;;;;;;6.47;3.10;;;14.80;99.90;;;;;;5061709;28;20594;-41
2023/05/17 12:34:28;;;;;;;4.43;3.10;;;14.60;99.90;;;;;;5041636;28;20217;-41
2023/05/17 12:36:54;;;;;;;4.60;3.30;;;14.40;99.90;;;;;;5059504;28;20204;-39
2023/05/17 12:39:24;;;;;;;4.67;3.10;;;14.10;99.90;;;;;;5041316;28;20194;-42
2023/05/17 12:41:51;;;;;;;5.37;2.93;;;14.10;99.90;;;;;;5041931;28;20179;-39
2023/05/17 12:44:19;;;;;;;5.73;2.93;;;14.20;99.90;;;;;;5041118;28;20228;-41
2023/05/17 12:46:54;;;;;;;5.97;3.17;;;14.40;99.90;;;;;;5044737;28;20235;-41
2023/05/17 12:49:22;;;;;;;5.13;3.03;;;14.50;99.90;;;;;;5057867;28;20660;-41
2023/05/17 12:51:48;;;;;;;5.67;3.50;;;14.80;99.90;;;;;;5039869;28;20181;-41
2023/05/17 12:54:26;;;;;;;5.63;2.90;;;15.00;99.90;;;;;;5043415;28;20205;-41
2023/05/17 12:56:54;;;;;;;5.20;3.27;;;14.90;99.90;;;;;;5042172;28;20182;-41
2023/05/17 12:59:23;;;;;;;7.50;3.83;;;14.60;99.90;;;;;;5059496;28;20244;-40